sensor_id;sensor_type;location;lat;lon;timestamp;P1;durP1;ratioP1;P2;durP2;ratioP2
13240;SDS011;6687;47.790;7.322;2023-08-07T05:24:10;0.40;;;0.32;;
13240;SDS011;6687;47.790;7.322;2023-08-07T05:26:37;0.25;;;0.25;;
13240;SDS011;6687;47.790;7.322;2023-08-07T05:29:04;0.30;;;0.30;;
13240;SDS011;6687;47.790;7.322;2023-08-07T05:31:32;0.20;;;0.20;;
13240;SDS011;6687;47.790;7.322;2023-08-07T05:33:58;0.40;;;0.32;;
13240;SDS011;6687;47.790;7.322;2023-08-07T05:36:25;0.20;;;0.20;;
13240;SDS011;6687;47.790;7.322;2023-08-07T05:38:52;0.13;;;0.13;;
13240;SDS011;6687;47.790;7.322;2023-08-07T05:41:20;0.25;;;0.25;;
13240;SDS011;6687;47.790;7.322;2023-08-07T05:43:47;1.27;;;0.20;;
13240;SDS011;6687;47.790;7.322;2023-08-07T05:46:13;1.00;;;0.43;;
13240;SDS011;6687;47.790;7.322;2023-08-07T05:48:40;0.20;;;0.20;;
13240;SDS011;6687;47.790;7.322;2023-08-07T05:51:07;0.40;;;0.32;;
13240;SDS011;6687;47.790;7.322;2023-08-07T05:53:34;0.20;;;0.20;;
13240;SDS011;6687;47.790;7.322;2023-08-07T05:56:01;0.50;;;0.50;;
13240;SDS011;6687;47.790;7.322;2023-08-07T05:58:29;0.57;;;0.40;;
13240;SDS011;6687;47.790;7.322;2023-08-07T06:00:56;0.10;;;0.10;;
13240;SDS011;6687;47.790;7.322;2023-08-07T06:03:23;0.45;;;0.32;;
13240;SDS011;6687;47.790;7.322;2023-08-07T06:05:49;0.47;;;0.40;;
13240;SDS011;6687;47.790;7.322;2023-08-07T06:08:16;0.47;;;0.22;;
13240;SDS011;6687;47.790;7.322;2023-08-07T06:10:43;0.25;;;0.25;;
13240;SDS011;6687;47.790;7.322;2023-08-07T06:13:09;0.60;;;0.40;;
13240;SDS011;6687;47.790;7.322;2023-08-07T06:15:37;0.25;;;0.25;;
13240;SDS011;6687;47.790;7.322;2023-08-07T06:18:04;0.25;;;0.25;;
13240;SDS011;6687;47.790;7.322;2023-08-07T06:20:31;0.38;;;0.38;;
13240;SDS011;6687;47.790;7.322;2023-08-07T06:22:57;0.88;;;0.47;;
13240;SDS011;6687;47.790;7.322;2023-08-07T06:25:24;0.40;;;0.30;;
13240;SDS011;6687;47.790;7.322;2023-08-07T06:27:51;0.25;;;0.25;;
13240;SDS011;6687;47.790;7.322;2023-08-07T06:30:18;0.30;;;0.30;;
13240;SDS011;6687;47.790;7.322;2023-08-07T06:32:46;0.25;;;0.25;;
13240;SDS011;6687;47.790;7.322;2023-08-07T06:35:13;0.93;;;0.52;;
13240;SDS011;6687;47.790;7.322;2023-08-07T06:37:40;0.43;;;0.43;;
13240;SDS011;6687;47.790;7.322;2023-08-07T06:40:07;0.20;;;0.20;;
13240;SDS011;6687;47.790;7.322;2023-08-07T06:42:34;0.50;;;0.50;;
13240;SDS011;6687;47.790;7.322;2023-08-07T06:45:01;0.80;;;0.60;;
13240;SDS011;6687;47.790;7.322;2023-08-07T06:47:28;0.30;;;0.30;;
13240;SDS011;6687;47.790;7.322;2023-08-07T06:49:56;0.25;;;0.20;;
13240;SDS011;6687;47.790;7.322;2023-08-07T06:52:23;0.50;;;0.30;;
13240;SDS011;6687;47.790;7.322;2023-08-07T06:54:49;0.40;;;0.40;;
13240;SDS011;6687;47.790;7.322;2023-08-07T06:57:17;0.57;;;0.57;;
13240;SDS011;6687;47.790;7.322;2023-08-07T06:59:44;0.30;;;0.30;;
13240;SDS011;6687;47.790;7.322;2023-08-07T07:02:11;0.40;;;0.40;;
13240;SDS011;6687;47.790;7.322;2023-08-07T07:04:37;0.30;;;0.30;;
13240;SDS011;6687;47.790;7.322;2023-08-07T07:07:05;0.30;;;0.30;;
13240;SDS011;6687;47.790;7.322;2023-08-07T07:09:32;0.20;;;0.20;;
13240;SDS011;6687;47.790;7.322;2023-08-07T07:11:59;0.47;;;0.47;;
13240;SDS011;6687;47.790;7.322;2023-08-07T07:14:25;0.30;;;0.30;;
13240;SDS011;6687;47.790;7.322;2023-08-07T07:16:52;0.45;;;0.45;;
13240;SDS011;6687;47.790;7.322;2023-08-07T07:19:19;0.40;;;0.30;;
13240;SDS011;6687;47.790;7.322;2023-08-07T07:21:45;0.32;;;0.32;;
13240;SDS011;6687;47.790;7.322;2023-08-07T07:24:13;0.47;;;0.47;;
13240;SDS011;6687;47.790;7.322;2023-08-07T07:26:40;0.52;;;0.32;;
13240;SDS011;6687;47.790;7.322;2023-08-07T07:29:07;0.60;;;0.30;;
13240;SDS011;6687;47.790;7.322;2023-08-07T07:31:34;0.17;;;0.17;;
13240;SDS011;6687;47.790;7.322;2023-08-07T07:34:00;0.70;;;0.70;;
13240;SDS011;6687;47.790;7.322;2023-08-07T07:36:27;0.30;;;0.30;;
13240;SDS011;6687;47.790;7.322;2023-08-07T07:38:54;0.32;;;0.32;;
13240;SDS011;6687;47.790;7.322;2023-08-07T07:41:23;1.17;;;0.47;;
13240;SDS011;6687;47.790;7.322;2023-08-07T07:43:49;0.50;;;0.50;;
13240;SDS011;6687;47.790;7.322;2023-08-07T07:46:16;0.30;;;0.30;;
13240;SDS011;6687;47.790;7.322;2023-08-07T07:48:43;0.50;;;0.50;;
13240;SDS011;6687;47.790;7.322;2023-08-07T07:51:09;1.30;;;0.60;;
13240;SDS011;6687;47.790;7.322;2023-08-07T07:53:36;0.55;;;0.55;;
13240;SDS011;6687;47.790;7.322;2023-08-07T07:56:03;0.47;;;0.47;;
13240;SDS011;6687;47.790;7.322;2023-08-07T07:58:31;0.30;;;0.30;;
13240;SDS011;6687;47.790;7.322;2023-08-07T08:00:58;0.50;;;0.50;;
13240;SDS011;6687;47.790;7.322;2023-08-07T08:03:24;0.30;;;0.30;;
13240;SDS011;6687;47.790;7.322;2023-08-07T08:05:51;0.38;;;0.38;;
13240;SDS011;6687;47.790;7.322;2023-08-07T08:08:18;3.20;;;0.70;;
13240;SDS011;6687;47.790;7.322;2023-08-07T08:10:45;0.40;;;0.40;;
13240;SDS011;6687;47.790;7.322;2023-08-07T08:13:13;0.50;;;0.50;;
13240;SDS011;6687;47.790;7.322;2023-08-07T08:15:41;0.70;;;0.70;;
13240;SDS011;6687;47.790;7.322;2023-08-07T08:18:08;0.32;;;0.32;;
13240;SDS011;6687;47.790;7.322;2023-08-07T08:20:34;0.57;;;0.28;;
13240;SDS011;6687;47.790;7.322;2023-08-07T08:23:01;0.82;;;0.40;;
13240;SDS011;6687;47.790;7.322;2023-08-07T08:25:28;0.40;;;0.40;;
13240;SDS011;6687;47.790;7.322;2023-08-07T08:27:55;0.43;;;0.43;;
13240;SDS011;6687;47.790;7.322;2023-08-07T08:30:21;0.30;;;0.30;;
13240;SDS011;6687;47.790;7.322;2023-08-07T08:32:49;0.40;;;0.30;;
13240;SDS011;6687;47.790;7.322;2023-08-07T08:35:16;0.20;;;0.20;;
13240;SDS011;6687;47.790;7.322;2023-08-07T08:37:43;0.40;;;0.40;;
13240;SDS011;6687;47.790;7.322;2023-08-07T08:40:10;0.30;;;0.30;;
13240;SDS011;6687;47.790;7.322;2023-08-07T08:42:42;0.40;;;0.40;;
13240;SDS011;6687;47.790;7.322;2023-08-07T08:45:09;0.43;;;0.43;;
13240;SDS011;6687;47.790;7.322;2023-08-07T08:47:37;0.20;;;0.20;;
13240;SDS011;6687;47.790;7.322;2023-08-07T08:50:08;0.22;;;0.22;;
13240;SDS011;6687;47.790;7.322;2023-08-07T08:52:37;0.47;;;0.45;;
13240;SDS011;6687;47.790;7.322;2023-08-07T08:55:04;0.28;;;0.28;;
13240;SDS011;6687;47.790;7.322;2023-08-07T08:57:32;0.50;;;0.30;;
13240;SDS011;6687;47.790;7.322;2023-08-07T09:00:00;0.40;;;0.40;;
13240;SDS011;6687;47.790;7.322;2023-08-07T09:02:29;0.98;;;0.52;;
13240;SDS011;6687;47.790;7.322;2023-08-07T09:04:56;0.20;;;0.20;;
13240;SDS011;6687;47.790;7.322;2023-08-07T09:07:24;0.50;;;0.50;;
13240;SDS011;6687;47.790;7.322;2023-08-07T09:09:53;0.40;;;0.30;;
13240;SDS011;6687;47.790;7.322;2023-08-07T09:12:22;0.25;;;0.25;;
13240;SDS011;6687;47.790;7.322;2023-08-07T09:14:57;0.30;;;0.30;;
13240;SDS011;6687;47.790;7.322;2023-08-07T09:17:24;0.30;;;0.30;;
13240;SDS011;6687;47.790;7.322;2023-08-07T09:19:54;0.73;;;0.32;;
13240;SDS011;6687;47.790;7.322;2023-08-07T09:22:21;0.20;;;0.10;;
13240;SDS011;6687;47.790;7.322;2023-08-07T09:24:49;0.30;;;0.30;;
13240;SDS011;6687;47.790;7.322;2023-08-07T09:27:16;0.30;;;0.30;;
13240;SDS011;6687;47.790;7.322;2023-08-07T09:29:43;0.35;;;0.30;;
13240;SDS011;6687;47.790;7.322;2023-08-07T09:32:11;1.45;;;0.40;;
13240;SDS011;6687;47.790;7.322;2023-08-07T09:34:39;1.40;;;0.30;;
13240;SDS011;6687;47.790;7.322;2023-08-07T09:37:06;0.57;;;0.20;;
13240;SDS011;6687;47.790;7.322;2023-08-07T09:39:33;0.22;;;0.22;;
13240;SDS011;6687;47.790;7.322;2023-08-07T09:42:02;0.22;;;0.22;;
13240;SDS011;6687;47.790;7.322;2023-08-07T09:44:34;0.20;;;0.20;;
13240;SDS011;6687;47.790;7.322;2023-08-07T09:47:01;0.40;;;0.40;;
13240;SDS011;6687;47.790;7.322;2023-08-07T09:49:37;0.32;;;0.30;;
13240;SDS011;6687;47.790;7.322;2023-08-07T09:52:05;0.38;;;0.32;;
13240;SDS011;6687;47.790;7.322;2023-08-07T09:54:33;0.40;;;0.30;;
13240;SDS011;6687;47.790;7.322;2023-08-07T09:57:01;0.25;;;0.25;;
13240;SDS011;6687;47.790;7.322;2023-08-07T09:59:29;0.50;;;0.30;;
13240;SDS011;6687;47.790;7.322;2023-08-07T10:01:56;0.47;;;0.30;;
13240;SDS011;6687;47.790;7.322;2023-08-07T10:04:23;0.10;;;0.10;;
13240;SDS011;6687;47.790;7.322;2023-08-07T10:06:49;0.38;;;0.38;;
13240;SDS011;6687;47.790;7.322;2023-08-07T10:09:17;0.50;;;0.38;;
13240;SDS011;6687;47.790;7.322;2023-08-07T10:11:44;0.28;;;0.20;;
13240;SDS011;6687;47.790;7.322;2023-08-07T10:14:13;0.30;;;0.30;;
13240;SDS011;6687;47.790;7.322;2023-08-07T10:16:40;0.32;;;0.32;;
13240;SDS011;6687;47.790;7.322;2023-08-07T10:19:08;0.40;;;0.40;;
13240;SDS011;6687;47.790;7.322;2023-08-07T10:21:35;0.43;;;0.30;;
13240;SDS011;6687;47.790;7.322;2023-08-07T10:24:04;0.20;;;0.20;;
13240;SDS011;6687;47.790;7.322;2023-08-07T10:26:31;0.73;;;0.32;;
13240;SDS011;6687;47.790;7.322;2023-08-07T10:28:59;1.17;;;0.30;;
13240;SDS011;6687;47.790;7.322;2023-08-07T10:31:29;0.25;;;0.22;;
13240;SDS011;6687;47.790;7.322;2023-08-07T10:33:57;0.30;;;0.20;;
13240;SDS011;6687;47.790;7.322;2023-08-07T10:36:31;0.57;;;0.40;;
13240;SDS011;6687;47.790;7.322;2023-08-07T10:39:05;0.20;;;0.20;;
13240;SDS011;6687;47.790;7.322;2023-08-07T10:41:37;1.17;;;0.38;;
13240;SDS011;6687;47.790;7.322;2023-08-07T10:44:05;0.25;;;0.25;;
13240;SDS011;6687;47.790;7.322;2023-08-07T10:46:46;0.30;;;0.30;;
13240;SDS011;6687;47.790;7.322;2023-08-07T10:49:19;0.30;;;0.30;;
13240;SDS011;6687;47.790;7.322;2023-08-07T10:51:56;0.30;;;0.30;;
13240;SDS011;6687;47.790;7.322;2023-08-07T10:54:23;0.50;;;0.50;;
13240;SDS011;6687;47.790;7.322;2023-08-07T10:56:52;0.25;;;0.25;;
13240;SDS011;6687;47.790;7.322;2023-08-07T10:59:19;0.73;;;0.30;;
13240;SDS011;6687;47.790;7.322;2023-08-07T11:01:51;0.28;;;0.28;;
13240;SDS011;6687;47.790;7.322;2023-08-07T11:04:21;0.30;;;0.22;;
13240;SDS011;6687;47.790;7.322;2023-08-07T11:06:51;0.35;;;0.35;;
13240;SDS011;6687;47.790;7.322;2023-08-07T11:09:18;0.20;;;0.20;;
13240;SDS011;6687;47.790;7.322;2023-08-07T11:11:45;0.13;;;0.13;;
13240;SDS011;6687;47.790;7.322;2023-08-07T11:14:13;0.32;;;0.30;;
13240;SDS011;6687;47.790;7.322;2023-08-07T11:16:42;0.30;;;0.30;;
13240;SDS011;6687;47.790;7.322;2023-08-07T11:19:11;0.20;;;0.20;;
13240;SDS011;6687;47.790;7.322;2023-08-07T11:21:40;0.30;;;0.30;;
13240;SDS011;6687;47.790;7.322;2023-08-07T11:24:08;0.70;;;0.28;;
13240;SDS011;6687;47.790;7.322;2023-08-07T11:26:36;0.30;;;0.30;;
13240;SDS011;6687;47.790;7.322;2023-08-07T11:29:03;0.20;;;0.20;;
13240;SDS011;6687;47.790;7.322;2023-08-07T11:31:30;0.90;;;0.30;;
13240;SDS011;6687;47.790;7.322;2023-08-07T11:33:57;0.45;;;0.40;;
13240;SDS011;6687;47.790;7.322;2023-08-07T11:36:26;0.40;;;0.40;;
13240;SDS011;6687;47.790;7.322;2023-08-07T11:38:52;0.85;;;0.30;;
13240;SDS011;6687;47.790;7.322;2023-08-07T11:41:19;0.20;;;0.20;;
13240;SDS011;6687;47.790;7.322;2023-08-07T11:43:46;0.20;;;0.20;;
13240;SDS011;6687;47.790;7.322;2023-08-07T11:46:14;0.20;;;0.20;;
13240;SDS011;6687;47.790;7.322;2023-08-07T11:48:42;0.30;;;0.30;;
13240;SDS011;6687;47.790;7.322;2023-08-07T11:51:09;0.30;;;0.30;;
13240;SDS011;6687;47.790;7.322;2023-08-07T11:53:38;0.50;;;0.40;;
13240;SDS011;6687;47.790;7.322;2023-08-07T11:56:07;0.20;;;0.20;;
13240;SDS011;6687;47.790;7.322;2023-08-07T11:58:37;0.13;;;0.13;;
13240;SDS011;6687;47.790;7.322;2023-08-07T12:01:05;1.02;;;0.30;;
13240;SDS011;6687;47.790;7.322;2023-08-07T12:03:34;0.20;;;0.20;;
13240;SDS011;6687;47.790;7.322;2023-08-07T12:06:04;0.22;;;0.22;;
13240;SDS011;6687;47.790;7.322;2023-08-07T12:08:32;1.02;;;0.30;;
13240;SDS011;6687;47.790;7.322;2023-08-07T12:11:02;0.25;;;0.25;;
13240;SDS011;6687;47.790;7.322;2023-08-07T12:13:30;0.17;;;0.15;;
13240;SDS011;6687;47.790;7.322;2023-08-07T12:16:00;0.30;;;0.30;;
13240;SDS011;6687;47.790;7.322;2023-08-07T12:18:28;0.20;;;0.20;;
13240;SDS011;6687;47.790;7.322;2023-08-07T12:20:59;0.30;;;0.30;;
13240;SDS011;6687;47.790;7.322;2023-08-07T12:23:28;0.32;;;0.32;;
13240;SDS011;6687;47.790;7.322;2023-08-07T12:25:55;1.00;;;0.30;;
13240;SDS011;6687;47.790;7.322;2023-08-07T12:28:23;0.20;;;0.20;;
13240;SDS011;6687;47.790;7.322;2023-08-07T12:30:50;0.10;;;0.10;;
13240;SDS011;6687;47.790;7.322;2023-08-07T12:33:18;0.10;;;0.10;;
13240;SDS011;6687;47.790;7.322;2023-08-07T12:35:45;0.22;;;0.22;;
13240;SDS011;6687;47.790;7.322;2023-08-07T12:38:11;0.30;;;0.20;;
13240;SDS011;6687;47.790;7.322;2023-08-07T12:40:40;0.10;;;0.10;;
13240;SDS011;6687;47.790;7.322;2023-08-07T12:43:07;0.75;;;0.13;;
13240;SDS011;6687;47.790;7.322;2023-08-07T12:45:35;0.17;;;0.17;;
13240;SDS011;6687;47.790;7.322;2023-08-07T12:48:02;0.10;;;0.10;;
13240;SDS011;6687;47.790;7.322;2023-08-07T12:50:29;0.22;;;0.22;;
13240;SDS011;6687;47.790;7.322;2023-08-07T12:52:56;0.28;;;0.20;;
13240;SDS011;6687;47.790;7.322;2023-08-07T12:55:23;0.30;;;0.30;;
13240;SDS011;6687;47.790;7.322;2023-08-07T12:57:52;0.30;;;0.30;;
13240;SDS011;6687;47.790;7.322;2023-08-07T13:00:19;0.20;;;0.17;;
13240;SDS011;6687;47.790;7.322;2023-08-07T13:02:48;0.43;;;0.32;;
13240;SDS011;6687;47.790;7.322;2023-08-07T13:05:16;0.30;;;0.20;;
13240;SDS011;6687;47.790;7.322;2023-08-07T13:07:44;0.30;;;0.30;;
13240;SDS011;6687;47.790;7.322;2023-08-07T13:10:11;0.22;;;0.20;;
13240;SDS011;6687;47.790;7.322;2023-08-07T13:12:40;0.10;;;0.10;;
13240;SDS011;6687;47.790;7.322;2023-08-07T13:15:08;0.28;;;0.20;;
13240;SDS011;6687;47.790;7.322;2023-08-07T13:17:37;0.28;;;0.20;;
13240;SDS011;6687;47.790;7.322;2023-08-07T13:20:06;0.17;;;0.17;;
13240;SDS011;6687;47.790;7.322;2023-08-07T13:22:38;0.20;;;0.20;;
13240;SDS011;6687;47.790;7.322;2023-08-07T13:25:05;0.40;;;0.20;;
13240;SDS011;6687;47.790;7.322;2023-08-07T13:27:33;0.15;;;0.15;;
13240;SDS011;6687;47.790;7.322;2023-08-07T13:30:01;0.35;;;0.20;;
13240;SDS011;6687;47.790;7.322;2023-08-07T13:32:28;0.10;;;0.10;;
13240;SDS011;6687;47.790;7.322;2023-08-07T13:34:55;0.20;;;0.20;;
13240;SDS011;6687;47.790;7.322;2023-08-07T13:37:23;0.30;;;0.30;;
13240;SDS011;6687;47.790;7.322;2023-08-07T13:39:49;0.30;;;0.30;;
13240;SDS011;6687;47.790;7.322;2023-08-07T13:42:18;0.10;;;0.10;;
13240;SDS011;6687;47.790;7.322;2023-08-07T13:44:44;0.25;;;0.25;;
13240;SDS011;6687;47.790;7.322;2023-08-07T13:47:12;0.20;;;0.20;;
13240;SDS011;6687;47.790;7.322;2023-08-07T13:49:39;0.20;;;0.20;;
13240;SDS011;6687;47.790;7.322;2023-08-07T13:52:06;0.20;;;0.20;;
13240;SDS011;6687;47.790;7.322;2023-08-07T13:54:34;0.20;;;0.20;;
13240;SDS011;6687;47.790;7.322;2023-08-07T13:57:01;0.30;;;0.30;;
13240;SDS011;6687;47.790;7.322;2023-08-07T13:59:27;0.30;;;0.30;;
13240;SDS011;6687;47.790;7.322;2023-08-07T14:01:54;0.43;;;0.40;;
13240;SDS011;6687;47.790;7.322;2023-08-07T14:04:21;0.20;;;0.17;;
13240;SDS011;6687;47.790;7.322;2023-08-07T14:06:48;0.30;;;0.30;;
13240;SDS011;6687;47.790;7.322;2023-08-07T14:09:14;0.20;;;0.20;;
13240;SDS011;6687;47.790;7.322;2023-08-07T14:11:44;0.30;;;0.30;;
13240;SDS011;6687;47.790;7.322;2023-08-07T14:14:11;0.25;;;0.25;;
13240;SDS011;6687;47.790;7.322;2023-08-07T14:16:38;0.55;;;0.55;;
13240;SDS011;6687;47.790;7.322;2023-08-07T14:19:04;1.33;;;0.20;;
13240;SDS011;6687;47.790;7.322;2023-08-07T14:21:31;0.10;;;0.10;;
13240;SDS011;6687;47.790;7.322;2023-08-07T14:23:58;1.65;;;0.20;;
13240;SDS011;6687;47.790;7.322;2023-08-07T14:26:25;0.40;;;0.40;;
13240;SDS011;6687;47.790;7.322;2023-08-07T14:28:53;0.20;;;0.20;;
13240;SDS011;6687;47.790;7.322;2023-08-07T14:31:19;0.20;;;0.20;;
13240;SDS011;6687;47.790;7.322;2023-08-07T14:33:46;0.40;;;0.32;;
13240;SDS011;6687;47.790;7.322;2023-08-07T14:36:13;0.30;;;0.25;;
13240;SDS011;6687;47.790;7.322;2023-08-07T14:38:40;0.20;;;0.20;;
13240;SDS011;6687;47.790;7.322;2023-08-07T14:41:07;0.25;;;0.25;;
13240;SDS011;6687;47.790;7.322;2023-08-07T14:43:33;0.20;;;0.20;;
13240;SDS011;6687;47.790;7.322;2023-08-07T14:46:01;0.10;;;0.10;;
13240;SDS011;6687;47.790;7.322;2023-08-07T14:48:28;0.30;;;0.30;;
13240;SDS011;6687;47.790;7.322;2023-08-07T14:50:55;0.20;;;0.20;;
13240;SDS011;6687;47.790;7.322;2023-08-07T14:53:22;0.85;;;0.63;;
13240;SDS011;6687;47.790;7.322;2023-08-07T14:55:50;0.20;;;0.20;;
13240;SDS011;6687;47.790;7.322;2023-08-07T14:58:17;0.25;;;0.25;;
13240;SDS011;6687;47.790;7.322;2023-08-07T15:00:44;1.27;;;0.40;;
13240;SDS011;6687;47.790;7.322;2023-08-07T15:03:12;0.15;;;0.15;;
13240;SDS011;6687;47.790;7.322;2023-08-07T15:05:39;0.30;;;0.30;;
13240;SDS011;6687;47.790;7.322;2023-08-07T15:08:05;0.20;;;0.20;;
13240;SDS011;6687;47.790;7.322;2023-08-07T15:10:32;0.22;;;0.22;;
13240;SDS011;6687;47.790;7.322;2023-08-07T15:13:00;1.20;;;0.43;;
13240;SDS011;6687;47.790;7.322;2023-08-07T15:15:27;0.47;;;0.30;;
13240;SDS011;6687;47.790;7.322;2023-08-07T15:17:54;0.40;;;0.40;;
13240;SDS011;6687;47.790;7.322;2023-08-07T15:20:22;0.20;;;0.20;;
13240;SDS011;6687;47.790;7.322;2023-08-07T15:22:49;0.40;;;0.40;;
13240;SDS011;6687;47.790;7.322;2023-08-07T15:25:16;0.60;;;0.32;;
13240;SDS011;6687;47.790;7.322;2023-08-07T15:27:43;0.35;;;0.35;;
13240;SDS011;6687;47.790;7.322;2023-08-07T15:30:10;0.28;;;0.20;;
13240;SDS011;6687;47.790;7.322;2023-08-07T15:32:37;0.10;;;0.10;;
13240;SDS011;6687;47.790;7.322;2023-08-07T15:35:06;0.35;;;0.35;;
13240;SDS011;6687;47.790;7.322;2023-08-07T15:37:35;1.05;;;0.28;;
13240;SDS011;6687;47.790;7.322;2023-08-07T15:40:02;0.65;;;0.40;;
13240;SDS011;6687;47.790;7.322;2023-08-07T15:42:29;0.17;;;0.17;;
13240;SDS011;6687;47.790;7.322;2023-08-07T15:44:56;0.15;;;0.13;;
13240;SDS011;6687;47.790;7.322;2023-08-07T15:47:23;0.38;;;0.30;;
13240;SDS011;6687;47.790;7.322;2023-08-07T15:49:49;0.55;;;0.30;;
13240;SDS011;6687;47.790;7.322;2023-08-07T15:52:16;0.30;;;0.30;;
13240;SDS011;6687;47.790;7.322;2023-08-07T15:54:44;0.10;;;0.10;;
13240;SDS011;6687;47.790;7.322;2023-08-07T15:57:11;0.35;;;0.20;;
13240;SDS011;6687;47.790;7.322;2023-08-07T15:59:39;0.20;;;0.20;;
13240;SDS011;6687;47.790;7.322;2023-08-07T16:02:06;0.22;;;0.22;;
13240;SDS011;6687;47.790;7.322;2023-08-07T16:04:33;0.25;;;0.25;;
13240;SDS011;6687;47.790;7.322;2023-08-07T16:07:00;0.32;;;0.32;;
13240;SDS011;6687;47.790;7.322;2023-08-07T16:09:28;0.22;;;0.22;;
13240;SDS011;6687;47.790;7.322;2023-08-07T16:11:57;1.05;;;0.25;;
13240;SDS011;6687;47.790;7.322;2023-08-07T16:14:23;0.22;;;0.20;;
13240;SDS011;6687;47.790;7.322;2023-08-07T16:16:50;0.15;;;0.15;;
13240;SDS011;6687;47.790;7.322;2023-08-07T16:19:17;0.40;;;0.40;;
13240;SDS011;6687;47.790;7.322;2023-08-07T16:21:44;0.38;;;0.28;;
13240;SDS011;6687;47.790;7.322;2023-08-07T16:24:11;0.93;;;0.40;;
13240;SDS011;6687;47.790;7.322;2023-08-07T16:26:37;0.35;;;0.35;;
13240;SDS011;6687;47.790;7.322;2023-08-07T16:29:06;0.30;;;0.30;;
13240;SDS011;6687;47.790;7.322;2023-08-07T16:31:32;0.28;;;0.28;;
13240;SDS011;6687;47.790;7.322;2023-08-07T16:33:59;0.30;;;0.30;;
13240;SDS011;6687;47.790;7.322;2023-08-07T16:36:26;0.55;;;0.50;;
13240;SDS011;6687;47.790;7.322;2023-08-07T16:38:52;0.40;;;0.40;;
13240;SDS011;6687;47.790;7.322;2023-08-07T16:41:19;0.30;;;0.30;;
13240;SDS011;6687;47.790;7.322;2023-08-07T16:43:46;0.30;;;0.30;;
13240;SDS011;6687;47.790;7.322;2023-08-07T16:46:14;0.40;;;0.40;;
13240;SDS011;6687;47.790;7.322;2023-08-07T16:48:42;0.43;;;0.40;;
13240;SDS011;6687;47.790;7.322;2023-08-07T16:51:10;0.17;;;0.17;;
13240;SDS011;6687;47.790;7.322;2023-08-07T16:53:37;0.28;;;0.28;;
13240;SDS011;6687;47.790;7.322;2023-08-07T16:56:04;0.70;;;0.40;;
13240;SDS011;6687;47.790;7.322;2023-08-07T16:58:32;0.65;;;0.30;;
13240;SDS011;6687;47.790;7.322;2023-08-07T17:00:59;1.55;;;0.30;;
13240;SDS011;6687;47.790;7.322;2023-08-07T17:03:27;0.20;;;0.20;;
13240;SDS011;6687;47.790;7.322;2023-08-07T17:05:53;0.20;;;0.20;;
13240;SDS011;6687;47.790;7.322;2023-08-07T17:08:21;0.52;;;0.40;;
13240;SDS011;6687;47.790;7.322;2023-08-07T17:10:48;0.60;;;0.50;;
13240;SDS011;6687;47.790;7.322;2023-08-07T17:13:15;0.30;;;0.25;;
13240;SDS011;6687;47.790;7.322;2023-08-07T17:15:42;0.13;;;0.13;;
13240;SDS011;6687;47.790;7.322;2023-08-07T17:18:09;0.28;;;0.20;;
13240;SDS011;6687;47.790;7.322;2023-08-07T17:20:37;0.60;;;0.32;;
13240;SDS011;6687;47.790;7.322;2023-08-07T17:23:03;0.30;;;0.30;;
13240;SDS011;6687;47.790;7.322;2023-08-07T17:25:30;0.40;;;0.40;;
13240;SDS011;6687;47.790;7.322;2023-08-07T17:27:57;0.30;;;0.22;;
13240;SDS011;6687;47.790;7.322;2023-08-07T17:30:24;0.22;;;0.20;;
13240;SDS011;6687;47.790;7.322;2023-08-07T17:32:51;0.25;;;0.22;;
13240;SDS011;6687;47.790;7.322;2023-08-07T17:35:18;0.30;;;0.30;;
13240;SDS011;6687;47.790;7.322;2023-08-07T17:37:48;0.75;;;0.35;;
13240;SDS011;6687;47.790;7.322;2023-08-07T17:40:15;1.63;;;0.45;;
13240;SDS011;6687;47.790;7.322;2023-08-07T17:42:42;0.38;;;0.30;;
13240;SDS011;6687;47.790;7.322;2023-08-07T17:45:08;0.30;;;0.30;;
13240;SDS011;6687;47.790;7.322;2023-08-07T17:47:35;0.30;;;0.30;;
13240;SDS011;6687;47.790;7.322;2023-08-07T17:50:02;0.22;;;0.22;;
13240;SDS011;6687;47.790;7.322;2023-08-07T17:52:30;0.30;;;0.30;;
13240;SDS011;6687;47.790;7.322;2023-08-07T17:54:59;0.00;;;0.00;;
13240;SDS011;6687;47.790;7.322;2023-08-07T17:57:26;0.20;;;0.20;;
13240;SDS011;6687;47.790;7.322;2023-08-07T17:59:53;0.38;;;0.30;;
13240;SDS011;6687;47.790;7.322;2023-08-07T18:02:19;0.40;;;0.40;;
13240;SDS011;6687;47.790;7.322;2023-08-07T18:04:46;0.57;;;0.47;;
13240;SDS011;6687;47.790;7.322;2023-08-07T18:07:13;0.28;;;0.28;;
13240;SDS011;6687;47.790;7.322;2023-08-07T18:09:40;0.32;;;0.32;;
13240;SDS011;6687;47.790;7.322;2023-08-07T18:12:09;0.35;;;0.20;;
13240;SDS011;6687;47.790;7.322;2023-08-07T18:14:36;0.30;;;0.20;;
13240;SDS011;6687;47.790;7.322;2023-08-07T18:17:03;0.43;;;0.17;;
13240;SDS011;6687;47.790;7.322;2023-08-07T18:19:30;1.00;;;0.60;;
13240;SDS011;6687;47.790;7.322;2023-08-07T18:21:57;2.00;;;0.40;;
13240;SDS011;6687;47.790;7.322;2023-08-07T18:24:25;0.70;;;0.40;;
13240;SDS011;6687;47.790;7.322;2023-08-07T18:26:52;0.57;;;0.40;;
13240;SDS011;6687;47.790;7.322;2023-08-07T18:29:20;0.32;;;0.25;;
13240;SDS011;6687;47.790;7.322;2023-08-07T18:31:47;1.05;;;0.45;;
13240;SDS011;6687;47.790;7.322;2023-08-07T18:34:14;0.40;;;0.40;;
13240;SDS011;6687;47.790;7.322;2023-08-07T18:36:42;0.47;;;0.40;;
13240;SDS011;6687;47.790;7.322;2023-08-07T18:39:11;0.20;;;0.20;;
13240;SDS011;6687;47.790;7.322;2023-08-07T18:41:38;0.30;;;0.30;;
13240;SDS011;6687;47.790;7.322;2023-08-07T18:44:04;0.50;;;0.28;;
13240;SDS011;6687;47.790;7.322;2023-08-07T18:46:33;1.05;;;0.52;;
13240;SDS011;6687;47.790;7.322;2023-08-07T18:49:00;0.32;;;0.20;;
13240;SDS011;6687;47.790;7.322;2023-08-07T18:51:27;0.65;;;0.28;;
13240;SDS011;6687;47.790;7.322;2023-08-07T18:53:55;0.45;;;0.30;;
13240;SDS011;6687;47.790;7.322;2023-08-07T18:56:22;0.43;;;0.43;;
13240;SDS011;6687;47.790;7.322;2023-08-07T18:58:49;0.40;;;0.40;;
13240;SDS011;6687;47.790;7.322;2023-08-07T19:01:16;0.35;;;0.28;;
13240;SDS011;6687;47.790;7.322;2023-08-07T19:03:45;0.80;;;0.65;;
13240;SDS011;6687;47.790;7.322;2023-08-07T19:06:12;0.50;;;0.50;;
13240;SDS011;6687;47.790;7.322;2023-08-07T19:08:39;1.08;;;0.90;;
13240;SDS011;6687;47.790;7.322;2023-08-07T19:11:06;1.92;;;0.77;;
13240;SDS011;6687;47.790;7.322;2023-08-07T19:13:34;1.15;;;0.80;;
13240;SDS011;6687;47.790;7.322;2023-08-07T19:16:02;1.50;;;1.00;;
13240;SDS011;6687;47.790;7.322;2023-08-07T19:18:29;1.48;;;0.93;;
13240;SDS011;6687;47.790;7.322;2023-08-07T19:20:57;1.40;;;0.88;;
13240;SDS011;6687;47.790;7.322;2023-08-07T19:23:25;1.65;;;0.90;;
13240;SDS011;6687;47.790;7.322;2023-08-07T19:25:53;2.72;;;0.85;;
13240;SDS011;6687;47.790;7.322;2023-08-07T19:28:20;1.25;;;0.77;;
13240;SDS011;6687;47.790;7.322;2023-08-07T19:30:46;1.17;;;0.80;;
13240;SDS011;6687;47.790;7.322;2023-08-07T19:33:13;3.25;;;1.75;;
13240;SDS011;6687;47.790;7.322;2023-08-07T19:35:40;10.43;;;4.50;;
13240;SDS011;6687;47.790;7.322;2023-08-07T19:38:08;9.68;;;5.20;;
13240;SDS011;6687;47.790;7.322;2023-08-07T19:40:34;26.83;;;14.40;;
13240;SDS011;6687;47.790;7.322;2023-08-07T19:43:01;9.93;;;3.47;;
13240;SDS011;6687;47.790;7.322;2023-08-07T19:45:28;5.75;;;2.60;;
13240;SDS011;6687;47.790;7.322;2023-08-07T19:47:55;14.05;;;5.03;;
13240;SDS011;6687;47.790;7.322;2023-08-07T19:50:22;7.53;;;3.78;;
13240;SDS011;6687;47.790;7.322;2023-08-07T19:52:49;3.95;;;1.85;;
13240;SDS011;6687;47.790;7.322;2023-08-07T19:55:17;3.03;;;1.80;;
13240;SDS011;6687;47.790;7.322;2023-08-07T19:57:44;2.70;;;1.20;;
13240;SDS011;6687;47.790;7.322;2023-08-07T20:00:11;3.22;;;1.20;;
13240;SDS011;6687;47.790;7.322;2023-08-07T20:02:38;1.73;;;0.98;;
13240;SDS011;6687;47.790;7.322;2023-08-07T20:05:06;0.60;;;0.40;;
13240;SDS011;6687;47.790;7.322;2023-08-07T20:07:34;0.70;;;0.60;;
13240;SDS011;6687;47.790;7.322;2023-08-07T20:10:01;0.73;;;0.73;;
13240;SDS011;6687;47.790;7.322;2023-08-07T20:12:36;1.00;;;0.50;;
13240;SDS011;6687;47.790;7.322;2023-08-07T20:15:03;1.10;;;0.50;;
13240;SDS011;6687;47.790;7.322;2023-08-07T20:17:30;0.30;;;0.30;;
13240;SDS011;6687;47.790;7.322;2023-08-07T20:19:57;0.82;;;0.47;;
13240;SDS011;6687;47.790;7.322;2023-08-07T20:22:24;1.20;;;0.50;;
13240;SDS011;6687;47.790;7.322;2023-08-07T20:24:51;0.52;;;0.52;;